sensor_id;sensor_type;location;lat;lon;timestamp;pressure;altitude;pressure_sealevel;temperature;humidity
37132;BME280;23035;50.032;21.978;2023-04-24T00:03:05;66538.13;;;12.98;72.14
37132;BME280;23035;50.032;21.978;2023-04-24T00:08:11;66569.25;;;13.25;70.18
37132;BME280;23035;50.032;21.978;2023-04-24T00:13:14;66569.31;;;13.27;70.33
37132;BME280;23035;50.032;21.978;2023-04-24T00:18:19;66503.69;;;12.62;73.38
37132;BME280;23035;50.032;21.978;2023-04-24T00:23:24;66525.69;;;12.83;73.97
37132;BME280;23035;50.032;21.978;2023-04-24T00:28:28;66555.25;;;13.11;72.18
37132;BME280;23035;50.032;21.978;2023-04-24T00:33:32;66483.81;;;12.44;76.13
37132;BME280;23035;50.032;21.978;2023-04-24T00:38:38;66553.03;;;13.07;73.62
37132;BME280;23035;50.032;21.978;2023-04-24T00:43:42;66492.00;;;12.56;75.81
37132;BME280;23035;50.032;21.978;2023-04-24T00:48:46;66434.38;;;11.97;80.14
37132;BME280;23035;50.032;21.978;2023-04-24T00:53:51;66437.69;;;12.02;79.69
37132;BME280;23035;50.032;21.978;2023-04-24T00:58:55;66384.97;;;11.50;83.19
37132;BME280;23035;50.032;21.978;2023-04-24T01:04:00;66326.50;;;10.95;88.79
37132;BME280;23035;50.032;21.978;2023-04-24T01:09:06;66311.09;;;10.85;91.29
37132;BME280;23035;50.032;21.978;2023-04-24T01:14:12;66322.28;;;10.93;88.20
37132;BME280;23035;50.032;21.978;2023-04-24T01:19:18;66254.78;;;10.31;93.88
37132;BME280;23035;50.032;21.978;2023-04-24T01:24:24;66231.69;;;10.10;98.06
37132;BME280;23035;50.032;21.978;2023-04-24T01:29:28;66263.28;;;10.37;95.19
37132;BME280;23035;50.032;21.978;2023-04-24T01:34:32;66244.50;;;10.19;95.20
37132;BME280;23035;50.032;21.978;2023-04-24T01:39:38;66299.13;;;10.69;91.32
37132;BME280;23035;50.032;21.978;2023-04-24T01:44:42;66336.69;;;11.04;89.92
37132;BME280;23035;50.032;21.978;2023-04-24T01:49:47;66336.22;;;11.06;88.43
37132;BME280;23035;50.032;21.978;2023-04-24T01:54:53;66420.44;;;11.84;84.59
37132;BME280;23035;50.032;21.978;2023-04-24T01:59:58;66381.31;;;11.49;84.60
37132;BME280;23035;50.032;21.978;2023-04-24T02:05:06;66361.00;;;11.32;86.07
37132;BME280;23035;50.032;21.978;2023-04-24T02:10:13;66336.75;;;11.07;87.53
37132;BME280;23035;50.032;21.978;2023-04-24T02:15:17;66353.94;;;11.23;86.00
37132;BME280;23035;50.032;21.978;2023-04-24T02:20:21;66408.06;;;11.72;84.21
37132;BME280;23035;50.032;21.978;2023-04-24T02:25:27;66378.63;;;11.46;85.97
37132;BME280;23035;50.032;21.978;2023-04-24T02:30:31;66394.63;;;11.59;83.62
37132;BME280;23035;50.032;21.978;2023-04-24T02:35:35;66462.78;;;12.21;80.05
37132;BME280;23035;50.032;21.978;2023-04-24T02:40:40;66430.09;;;11.93;82.72
37132;BME280;23035;50.032;21.978;2023-04-24T02:45:45;66395.81;;;11.63;85.78
37132;BME280;23035;50.032;21.978;2023-04-24T02:50:49;66377.00;;;11.45;86.73
37132;BME280;23035;50.032;21.978;2023-04-24T02:55:55;66394.81;;;11.64;86.08
37132;BME280;23035;50.032;21.978;2023-04-24T03:00:59;66329.78;;;11.00;89.57
37132;BME280;23035;50.032;21.978;2023-04-24T03:06:05;66432.94;;;12.00;83.88
37132;BME280;23035;50.032;21.978;2023-04-24T03:11:14;66325.69;;;11.01;90.69
37132;BME280;23035;50.032;21.978;2023-04-24T03:16:22;66366.81;;;11.35;87.78
37132;BME280;23035;50.032;21.978;2023-04-24T03:21:31;66383.47;;;11.51;87.92
37132;BME280;23035;50.032;21.978;2023-04-24T03:26:40;66355.56;;;11.25;89.08
37132;BME280;23035;50.032;21.978;2023-04-24T03:32:01;66349.09;;;11.18;89.55
37132;BME280;23035;50.032;21.978;2023-04-24T03:37:09;66406.91;;;11.68;87.71
37132;BME280;23035;50.032;21.978;2023-04-24T03:42:18;66453.19;;;12.15;82.04
37132;BME280;23035;50.032;21.978;2023-04-24T03:47:30;66449.88;;;12.09;82.08
37132;BME280;23035;50.032;21.978;2023-04-24T03:52:36;66500.00;;;12.61;77.61
37132;BME280;23035;50.032;21.978;2023-04-24T03:57:42;66494.09;;;12.56;77.62
37132;BME280;23035;50.032;21.978;2023-04-24T04:02:54;66597.81;;;13.54;73.65
37132;BME280;23035;50.032;21.978;2023-04-24T04:07:59;66640.81;;;13.95;69.27
37132;BME280;23035;50.032;21.978;2023-04-24T04:13:05;66689.25;;;14.41;66.71
37132;BME280;23035;50.032;21.978;2023-04-24T04:18:11;66719.31;;;14.67;64.86
37132;BME280;23035;50.032;21.978;2023-04-24T04:23:15;66694.09;;;14.45;65.33
37132;BME280;23035;50.032;21.978;2023-04-24T04:28:40;66812.88;;;15.53;60.01
37132;BME280;23035;50.032;21.978;2023-04-24T04:33:45;66788.66;;;15.30;62.00
37132;BME280;23035;50.032;21.978;2023-04-24T04:38:52;66758.59;;;15.04;64.27
37132;BME280;23035;50.032;21.978;2023-04-24T04:44:16;66784.50;;;15.31;63.15
37132;BME280;23035;50.032;21.978;2023-04-24T04:49:21;66799.50;;;15.42;62.09
37132;BME280;23035;50.032;21.978;2023-04-24T04:54:26;66822.75;;;15.67;60.99
37132;BME280;23035;50.032;21.978;2023-04-24T04:59:33;66764.03;;;15.11;62.95
37132;BME280;23035;50.032;21.978;2023-04-24T05:04:41;66773.75;;;15.20;62.10
37132;BME280;23035;50.032;21.978;2023-04-24T05:09:46;66799.44;;;15.40;61.66
37132;BME280;23035;50.032;21.978;2023-04-24T05:14:51;66838.81;;;15.80;59.92
37132;BME280;23035;50.032;21.978;2023-04-24T05:19:55;66861.44;;;16.01;60.05
37132;BME280;23035;50.032;21.978;2023-04-24T05:24:59;66870.66;;;16.12;60.47
37132;BME280;23035;50.032;21.978;2023-04-24T05:30:06;66911.00;;;16.48;57.79
37132;BME280;23035;50.032;21.978;2023-04-24T05:35:11;66943.50;;;16.83;57.02
37132;BME280;23035;50.032;21.978;2023-04-24T05:40:15;66963.84;;;16.98;56.73
37132;BME280;23035;50.032;21.978;2023-04-24T05:45:21;66984.78;;;17.15;55.55
37132;BME280;23035;50.032;21.978;2023-04-24T05:50:25;66985.53;;;17.23;55.54
37132;BME280;23035;50.032;21.978;2023-04-24T05:55:30;67050.19;;;17.82;53.21
37132;BME280;23035;50.032;21.978;2023-04-24T06:00:35;67153.25;;;18.79;50.72
37132;BME280;23035;50.032;21.978;2023-04-24T06:05:43;67303.84;;;20.18;45.42
37132;BME280;23035;50.032;21.978;2023-04-24T06:10:48;67384.97;;;20.97;42.15
37132;BME280;23035;50.032;21.978;2023-04-24T06:15:55;67259.06;;;19.79;45.41
37132;BME280;23035;50.032;21.978;2023-04-24T06:21:12;67209.84;;;19.30;45.33
37132;BME280;23035;50.032;21.978;2023-04-24T06:26:16;67133.19;;;18.57;47.71
37132;BME280;23035;50.032;21.978;2023-04-24T06:31:21;67136.44;;;18.60;47.95
37132;BME280;23035;50.032;21.978;2023-04-24T06:36:25;67154.94;;;18.83;47.49
37132;BME280;23035;50.032;21.978;2023-04-24T06:41:30;67082.47;;;18.10;48.61
37132;BME280;23035;50.032;21.978;2023-04-24T06:46:35;67181.31;;;19.05;46.50
37132;BME280;23035;50.032;21.978;2023-04-24T06:51:43;67228.34;;;19.52;46.93
37132;BME280;23035;50.032;21.978;2023-04-24T06:56:47;67332.50;;;20.45;43.33
37132;BME280;23035;50.032;21.978;2023-04-24T07:01:54;67314.09;;;20.28;44.88
37132;BME280;23035;50.032;21.978;2023-04-24T07:06:59;67326.66;;;20.45;44.73
37132;BME280;23035;50.032;21.978;2023-04-24T07:12:03;67322.81;;;20.39;44.68
37132;BME280;23035;50.032;21.978;2023-04-24T07:17:09;67281.16;;;19.97;43.91
37132;BME280;23035;50.032;21.978;2023-04-24T07:22:13;67256.34;;;19.76;45.09
37132;BME280;23035;50.032;21.978;2023-04-24T07:27:19;67216.84;;;19.36;45.95
37132;BME280;23035;50.032;21.978;2023-04-24T07:32:24;67309.91;;;20.29;44.10
37132;BME280;23035;50.032;21.978;2023-04-24T07:37:28;67253.66;;;19.73;44.59
37132;BME280;23035;50.032;21.978;2023-04-24T07:42:32;67305.94;;;20.18;44.16
37132;BME280;23035;50.032;21.978;2023-04-24T07:47:38;67241.31;;;19.64;44.86
37132;BME280;23035;50.032;21.978;2023-04-24T07:52:43;67267.25;;;19.89;45.97
37132;BME280;23035;50.032;21.978;2023-04-24T07:57:47;67328.22;;;20.44;44.87
37132;BME280;23035;50.032;21.978;2023-04-24T08:02:52;67359.56;;;20.73;44.39
37132;BME280;23035;50.032;21.978;2023-04-24T08:07:58;67403.22;;;21.09;43.00
37132;BME280;23035;50.032;21.978;2023-04-24T08:13:02;67319.56;;;20.36;45.82
37132;BME280;23035;50.032;21.978;2023-04-24T08:18:07;67376.31;;;20.89;42.71
37132;BME280;23035;50.032;21.978;2023-04-24T08:23:14;67432.63;;;21.44;42.86
37132;BME280;23035;50.032;21.978;2023-04-24T08:28:18;67440.16;;;21.52;40.16
37132;BME280;23035;50.032;21.978;2023-04-24T08:33:24;67446.19;;;21.60;41.69
37132;BME280;23035;50.032;21.978;2023-04-24T08:38:28;67468.25;;;21.75;40.22
37132;BME280;23035;50.032;21.978;2023-04-24T08:43:33;67407.53;;;21.13;40.46
37132;BME280;23035;50.032;21.978;2023-04-24T08:48:40;67351.94;;;20.63;41.13
37132;BME280;23035;50.032;21.978;2023-04-24T08:53:45;67387.06;;;20.97;39.66
37132;BME280;23035;50.032;21.978;2023-04-24T08:58:50;67416.72;;;21.22;39.98
37132;BME280;23035;50.032;21.978;2023-04-24T09:03:56;67421.28;;;21.34;39.97
37132;BME280;23035;50.032;21.978;2023-04-24T09:09:01;67487.72;;;21.94;37.00
37132;BME280;23035;50.032;21.978;2023-04-24T09:14:05;67419.09;;;21.32;38.41
37132;BME280;23035;50.032;21.978;2023-04-24T09:19:11;67412.59;;;21.26;36.93
37132;BME280;23035;50.032;21.978;2023-04-24T09:24:17;67428.75;;;21.38;37.35
37132;BME280;23035;50.032;21.978;2023-04-24T09:29:22;67445.53;;;21.54;36.78
37132;BME280;23035;50.032;21.978;2023-04-24T09:34:28;67423.34;;;21.33;35.97
37132;BME280;23035;50.032;21.978;2023-04-24T09:39:32;67405.56;;;21.19;36.69
37132;BME280;23035;50.032;21.978;2023-04-24T09:44:42;67445.00;;;21.54;36.13
37132;BME280;23035;50.032;21.978;2023-04-24T09:49:48;67482.25;;;21.86;35.57
37132;BME280;23035;50.032;21.978;2023-04-24T09:54:53;67513.69;;;22.18;34.24
37132;BME280;23035;50.032;21.978;2023-04-24T09:59:57;67550.41;;;22.50;34.52
37132;BME280;23035;50.032;21.978;2023-04-24T10:05:03;67494.19;;;22.00;32.61
37132;BME280;23035;50.032;21.978;2023-04-24T10:10:08;67510.97;;;22.16;32.69
37132;BME280;23035;50.032;21.978;2023-04-24T10:15:13;67492.09;;;22.00;33.12
37132;BME280;23035;50.032;21.978;2023-04-24T10:20:24;67408.19;;;21.19;35.69
37132;BME280;23035;50.032;21.978;2023-04-24T10:25:31;67564.00;;;22.66;32.91
37132;BME280;23035;50.032;21.978;2023-04-24T10:30:35;67561.22;;;22.60;31.96
37132;BME280;23035;50.032;21.978;2023-04-24T10:35:44;67574.81;;;22.76;32.19
37132;BME280;23035;50.032;21.978;2023-04-24T10:40:51;67532.63;;;22.36;31.98
37132;BME280;23035;50.032;21.978;2023-04-24T10:46:02;67479.00;;;21.83;34.24
37132;BME280;23035;50.032;21.978;2023-04-24T10:51:11;67572.66;;;22.74;32.96
37132;BME280;23035;50.032;21.978;2023-04-24T10:56:16;67535.91;;;22.42;32.52
37132;BME280;23035;50.032;21.978;2023-04-24T11:01:24;67561.34;;;22.66;31.62
37132;BME280;23035;50.032;21.978;2023-04-24T11:06:32;67674.44;;;23.69;30.67
37132;BME280;23035;50.032;21.978;2023-04-24T11:11:38;67507.13;;;22.10;32.65
37132;BME280;23035;50.032;21.978;2023-04-24T11:16:52;67606.19;;;23.03;31.97
37132;BME280;23035;50.032;21.978;2023-04-24T11:22:01;67628.47;;;23.29;30.74
37132;BME280;23035;50.032;21.978;2023-04-24T11:27:09;67813.03;;;24.95;28.27
37132;BME280;23035;50.032;21.978;2023-04-24T11:32:24;67976.91;;;26.53;26.97
37132;BME280;23035;50.032;21.978;2023-04-24T11:37:34;67934.59;;;26.14;27.09
37132;BME280;23035;50.032;21.978;2023-04-24T11:42:40;67966.06;;;26.43;26.12
37132;BME280;23035;50.032;21.978;2023-04-24T11:47:44;68031.75;;;27.05;25.29
37132;BME280;23035;50.032;21.978;2023-04-24T11:52:51;67908.59;;;25.89;27.52
37132;BME280;23035;50.032;21.978;2023-04-24T11:57:56;68052.91;;;27.25;26.15
37132;BME280;23035;50.032;21.978;2023-04-24T12:03:05;68016.53;;;26.91;27.99
37132;BME280;23035;50.032;21.978;2023-04-24T12:08:11;68088.19;;;27.58;25.00
37132;BME280;23035;50.032;21.978;2023-04-24T12:13:16;68229.41;;;28.90;22.96
37132;BME280;23035;50.032;21.978;2023-04-24T12:18:22;68287.63;;;29.50;23.35
37132;BME280;23035;50.032;21.978;2023-04-24T12:23:37;68191.88;;;28.52;23.85
37132;BME280;23035;50.032;21.978;2023-04-24T12:28:41;67977.53;;;26.56;24.99
37132;BME280;23035;50.032;21.978;2023-04-24T12:33:45;67800.06;;;24.85;26.47
37132;BME280;23035;50.032;21.978;2023-04-24T12:38:53;68050.72;;;27.23;25.37
37132;BME280;23035;50.032;21.978;2023-04-24T12:43:57;68160.38;;;28.23;23.97
37132;BME280;23035;50.032;21.978;2023-04-24T12:49:01;68048.03;;;27.20;24.89
37132;BME280;23035;50.032;21.978;2023-04-24T12:54:06;68099.00;;;27.65;25.11
37132;BME280;23035;50.032;21.978;2023-04-24T12:59:11;68060.00;;;27.34;24.28
37132;BME280;23035;50.032;21.978;2023-04-24T13:04:15;67978.06;;;26.57;24.59
37132;BME280;23035;50.032;21.978;2023-04-24T13:09:21;67985.03;;;26.58;24.86
37132;BME280;23035;50.032;21.978;2023-04-24T13:14:26;68076.81;;;27.50;24.39
37132;BME280;23035;50.032;21.978;2023-04-24T13:19:36;68050.69;;;27.20;24.42
37132;BME280;23035;50.032;21.978;2023-04-24T13:24:41;67994.28;;;26.70;24.66
37132;BME280;23035;50.032;21.978;2023-04-24T13:29:46;67964.94;;;26.40;24.75
37132;BME280;23035;50.032;21.978;2023-04-24T13:34:50;68057.25;;;27.29;25.27
37132;BME280;23035;50.032;21.978;2023-04-24T13:39:55;68083.34;;;27.56;24.48
37132;BME280;23035;50.032;21.978;2023-04-24T13:44:59;68038.84;;;27.14;24.89
37132;BME280;23035;50.032;21.978;2023-04-24T13:50:15;67987.72;;;26.61;24.18
37132;BME280;23035;50.032;21.978;2023-04-24T13:55:21;68037.09;;;27.05;24.81
37132;BME280;23035;50.032;21.978;2023-04-24T14:00:25;67990.50;;;26.66;24.05
37132;BME280;23035;50.032;21.978;2023-04-24T14:05:29;68093.69;;;27.65;23.58
37132;BME280;23035;50.032;21.978;2023-04-24T14:10:34;67984.53;;;26.61;24.43
37132;BME280;23035;50.032;21.978;2023-04-24T14:15:39;67742.22;;;24.36;27.04
37132;BME280;23035;50.032;21.978;2023-04-24T14:20:43;67686.78;;;23.76;28.77
37132;BME280;23035;50.032;21.978;2023-04-24T14:25:49;67588.44;;;22.91;31.14
37132;BME280;23035;50.032;21.978;2023-04-24T14:30:55;67575.41;;;22.79;31.12
37132;BME280;23035;50.032;21.978;2023-04-24T14:35:59;67481.66;;;21.83;31.54
37132;BME280;23035;50.032;21.978;2023-04-24T14:41:06;67426.59;;;21.36;32.15
37132;BME280;23035;50.032;21.978;2023-04-24T14:46:15;67618.06;;;23.14;29.26
37132;BME280;23035;50.032;21.978;2023-04-24T14:51:20;67628.91;;;23.24;28.23
37132;BME280;23035;50.032;21.978;2023-04-24T14:56:25;67598.66;;;22.98;28.12
37132;BME280;23035;50.032;21.978;2023-04-24T15:01:29;67622.41;;;23.18;28.34
37132;BME280;23035;50.032;21.978;2023-04-24T15:06:33;67589.38;;;22.87;29.06
37132;BME280;23035;50.032;21.978;2023-04-24T15:11:38;67599.72;;;22.99;29.85
37132;BME280;23035;50.032;21.978;2023-04-24T15:16:43;67473.09;;;21.80;37.62
37132;BME280;23035;50.032;21.978;2023-04-24T15:21:47;67319.00;;;20.35;43.90
37132;BME280;23035;50.032;21.978;2023-04-24T15:26:53;67267.72;;;19.87;47.56
37132;BME280;23035;50.032;21.978;2023-04-24T15:32:00;67215.38;;;19.40;50.71
37132;BME280;23035;50.032;21.978;2023-04-24T15:37:04;67169.38;;;18.91;52.17
37132;BME280;23035;50.032;21.978;2023-04-24T15:42:10;67141.91;;;18.68;53.85
37132;BME280;23035;50.032;21.978;2023-04-24T15:47:14;67153.09;;;18.74;54.52
37132;BME280;23035;50.032;21.978;2023-04-24T15:52:18;67161.22;;;18.81;54.82
37132;BME280;23035;50.032;21.978;2023-04-24T15:57:23;67143.00;;;18.69;55.41
37132;BME280;23035;50.032;21.978;2023-04-24T16:02:27;67166.72;;;18.91;56.08
37132;BME280;23035;50.032;21.978;2023-04-24T16:07:33;67217.41;;;19.37;53.83
37132;BME280;23035;50.032;21.978;2023-04-24T16:12:39;67100.28;;;18.26;56.99
37132;BME280;23035;50.032;21.978;2023-04-24T16:17:43;67150.06;;;18.78;56.18
37132;BME280;23035;50.032;21.978;2023-04-24T16:22:47;67092.78;;;18.22;58.47
37132;BME280;23035;50.032;21.978;2023-04-24T16:27:53;67056.03;;;17.85;59.91
37132;BME280;23035;50.032;21.978;2023-04-24T16:32:58;67049.03;;;17.78;59.44
37132;BME280;23035;50.032;21.978;2023-04-24T16:38:03;67021.59;;;17.55;60.79
37132;BME280;23035;50.032;21.978;2023-04-24T16:43:08;67025.81;;;17.56;60.27
37132;BME280;23035;50.032;21.978;2023-04-24T16:48:12;66985.38;;;17.18;62.56
37132;BME280;23035;50.032;21.978;2023-04-24T16:53:16;66962.75;;;16.97;64.71
37132;BME280;23035;50.032;21.978;2023-04-24T16:58:22;66971.44;;;17.07;63.33
37132;BME280;23035;50.032;21.978;2023-04-24T17:03:26;66959.53;;;16.94;64.30
37132;BME280;23035;50.032;21.978;2023-04-24T17:08:30;66940.66;;;16.76;66.59
37132;BME280;23035;50.032;21.978;2023-04-24T17:13:36;66913.91;;;16.58;67.26
37132;BME280;23035;50.032;21.978;2023-04-24T17:18:40;66872.38;;;16.16;70.81
37132;BME280;23035;50.032;21.978;2023-04-24T17:23:44;66908.84;;;16.46;71.86
37132;BME280;23035;50.032;21.978;2023-04-24T17:28:50;66873.28;;;16.12;73.40
37132;BME280;23035;50.032;21.978;2023-04-24T17:33:55;66832.38;;;15.73;76.87
37132;BME280;23035;50.032;21.978;2023-04-24T17:39:00;66789.81;;;15.33;80.09
37132;BME280;23035;50.032;21.978;2023-04-24T17:44:06;66837.81;;;15.81;79.13
37132;BME280;23035;50.032;21.978;2023-04-24T17:49:10;66820.97;;;15.60;80.82
37132;BME280;23035;50.032;21.978;2023-04-24T17:54:14;66780.28;;;15.29;84.27
37132;BME280;23035;50.032;21.978;2023-04-24T17:59:21;66818.38;;;15.60;84.17
37132;BME280;23035;50.032;21.978;2023-04-24T18:04:25;66799.66;;;15.47;84.32
37132;BME280;23035;50.032;21.978;2023-04-24T18:09:29;66844.44;;;15.92;82.29
37132;BME280;23035;50.032;21.978;2023-04-24T18:14:35;66805.34;;;15.45;85.98
37132;BME280;23035;50.032;21.978;2023-04-24T18:19:39;66856.13;;;15.98;83.08
37132;BME280;23035;50.032;21.978;2023-04-24T18:24:43;66810.81;;;15.53;86.42
37132;BME280;23035;50.032;21.978;2023-04-24T18:29:49;66872.84;;;16.14;82.43
37132;BME280;23035;50.032;21.978;2023-04-24T18:34:53;66803.41;;;15.51;87.74
37132;BME280;23035;50.032;21.978;2023-04-24T18:39:58;66840.97;;;15.82;86.40
37132;BME280;23035;50.032;21.978;2023-04-24T18:45:04;66817.50;;;15.67;87.20
37132;BME280;23035;50.032;21.978;2023-04-24T18:50:09;66839.44;;;15.83;84.82
37132;BME280;23035;50.032;21.978;2023-04-24T18:55:13;66870.13;;;16.12;82.98
37132;BME280;23035;50.032;21.978;2023-04-24T19:00:19;66903.06;;;16.45;82.01
37132;BME280;23035;50.032;21.978;2023-04-24T19:05:23;66882.44;;;16.21;84.04
37132;BME280;23035;50.032;21.978;2023-04-24T19:10:27;66819.97;;;15.62;87.26
37132;BME280;23035;50.032;21.978;2023-04-24T19:15:34;66875.59;;;16.19;83.67
37132;BME280;23035;50.032;21.978;2023-04-24T19:20:38;66821.81;;;15.71;85.74
37132;BME280;23035;50.032;21.978;2023-04-24T19:25:41;66869.59;;;16.11;84.48
37132;BME280;23035;50.032;21.978;2023-04-24T19:30:47;66877.59;;;16.16;83.41
37132;BME280;23035;50.032;21.978;2023-04-24T19:35:53;66849.06;;;15.89;86.67
37132;BME280;23035;50.032;21.978;2023-04-24T19:41:00;66897.00;;;16.34;83.99
37132;BME280;23035;50.032;21.978;2023-04-24T19:46:07;66899.28;;;16.42;84.40
37132;BME280;23035;50.032;21.978;2023-04-24T19:51:13;66895.47;;;16.35;85.04
37132;BME280;23035;50.032;21.978;2023-04-24T19:56:17;66891.22;;;16.34;86.46
37132;BME280;23035;50.032;21.978;2023-04-24T20:01:23;66833.44;;;15.74;89.79
37132;BME280;23035;50.032;21.978;2023-04-24T20:06:27;66821.59;;;15.63;91.77
37132;BME280;23035;50.032;21.978;2023-04-24T20:11:32;66854.84;;;15.90;91.09
37132;BME280;23035;50.032;21.978;2023-04-24T20:16:37;66887.25;;;16.23;88.82
37132;BME280;23035;50.032;21.978;2023-04-24T20:21:42;66906.78;;;16.46;86.64
37132;BME280;23035;50.032;21.978;2023-04-24T20:26:46;66797.41;;;15.43;94.11
37132;BME280;23035;50.032;21.978;2023-04-24T20:31:51;66831.28;;;15.72;95.77
37132;BME280;23035;50.032;21.978;2023-04-24T20:36:55;66913.69;;;16.50;89.41
37132;BME280;23035;50.032;21.978;2023-04-24T20:42:00;66899.69;;;16.37;91.19
37132;BME280;23035;50.032;21.978;2023-04-24T20:47:06;66861.91;;;15.99;91.96
37132;BME280;23035;50.032;21.978;2023-04-24T20:52:10;66858.75;;;15.98;92.25
37132;BME280;23035;50.032;21.978;2023-04-24T20:57:14;66825.84;;;15.65;97.21
37132;BME280;23035;50.032;21.978;2023-04-24T21:02:20;66859.97;;;16.04;93.13
37132;BME280;23035;50.032;21.978;2023-04-24T21:07:24;66896.38;;;16.31;90.68
37132;BME280;23035;50.032;21.978;2023-04-24T21:12:28;66883.13;;;16.26;91.24
37132;BME280;23035;50.032;21.978;2023-04-24T21:17:33;66878.28;;;16.22;90.70
37132;BME280;23035;50.032;21.978;2023-04-24T21:22:37;66889.94;;;16.25;92.23
37132;BME280;23035;50.032;21.978;2023-04-24T21:27:42;66901.25;;;16.36;90.43
37132;BME280;23035;50.032;21.978;2023-04-24T21:32:47;66878.22;;;16.19;90.19
37132;BME280;23035;50.032;21.978;2023-04-24T21:37:51;66855.00;;;15.95;91.72
37132;BME280;23035;50.032;21.978;2023-04-24T21:42:55;66849.75;;;15.95;92.99
37132;BME280;23035;50.032;21.978;2023-04-24T21:48:00;66884.69;;;16.25;90.93
37132;BME280;23035;50.032;21.978;2023-04-24T21:53:04;66846.97;;;15.90;92.77
37132;BME280;23035;50.032;21.978;2023-04-24T21:58:08;66755.91;;;15.01;100.00
37132;BME280;23035;50.032;21.978;2023-04-24T22:03:14;66803.81;;;15.46;94.73
37132;BME280;23035;50.032;21.978;2023-04-24T22:08:18;66797.34;;;15.40;98.54
37132;BME280;23035;50.032;21.978;2023-04-24T22:13:22;66757.59;;;15.05;99.04
37132;BME280;23035;50.032;21.978;2023-04-24T22:18:27;66756.97;;;15.02;100.00
37132;BME280;23035;50.032;21.978;2023-04-24T22:23:48;66754.28;;;15.00;100.00
37132;BME280;23035;50.032;21.978;2023-04-24T22:28:53;66752.22;;;15.00;100.00
37132;BME280;23035;50.032;21.978;2023-04-24T22:33:58;66724.09;;;14.69;100.00
37132;BME280;23035;50.032;21.978;2023-04-24T22:39:02;66770.50;;;15.17;100.00
37132;BME280;23035;50.032;21.978;2023-04-24T22:44:07;66641.75;;;13.91;100.00
37132;BME280;23035;50.032;21.978;2023-04-24T22:49:12;66540.13;;;12.95;100.00
37132;BME280;23035;50.032;21.978;2023-04-24T22:54:16;66583.91;;;13.43;100.00
37132;BME280;23035;50.032;21.978;2023-04-24T22:59:20;66514.97;;;12.73;100.00
37132;BME280;23035;50.032;21.978;2023-04-24T23:04:26;66424.19;;;11.87;100.00
37132;BME280;23035;50.032;21.978;2023-04-24T23:09:30;66447.81;;;12.10;100.00
37132;BME280;23035;50.032;21.978;2023-04-24T23:14:34;66351.25;;;11.20;100.00
37132;BME280;23035;50.032;21.978;2023-04-24T23:19:39;66392.94;;;11.55;100.00
37132;BME280;23035;50.032;21.978;2023-04-24T23:24:43;66328.03;;;10.94;100.00
37132;BME280;23035;50.032;21.978;2023-04-24T23:29:47;66315.13;;;10.81;100.00
37132;BME280;23035;50.032;21.978;2023-04-24T23:34:52;66375.88;;;11.41;100.00
37132;BME280;23035;50.032;21.978;2023-04-24T23:39:57;66456.31;;;12.15;100.00
37132;BME280;23035;50.032;21.978;2023-04-24T23:45:01;66509.56;;;12.68;100.00
37132;BME280;23035;50.032;21.978;2023-04-24T23:50:07;66523.63;;;12.84;100.00
37132;BME280;23035;50.032;21.978;2023-04-24T23:55:11;66487.47;;;12.45;100.00
